sensor_id;sensor_type;location;lat;lon;timestamp;temperature;humidity
21648;DHT22;10985;54.182;7.890;2023-07-31T00:01:19;17.20;99.90
21648;DHT22;10985;54.182;7.890;2023-07-31T00:03:45;17.30;99.90
21648;DHT22;10985;54.182;7.890;2023-07-31T00:06:12;17.30;99.90
21648;DHT22;10985;54.182;7.890;2023-07-31T00:08:37;17.30;99.90
21648;DHT22;10985;54.182;7.890;2023-07-31T00:11:02;17.30;99.90
21648;DHT22;10985;54.182;7.890;2023-07-31T00:13:28;17.30;99.90
21648;DHT22;10985;54.182;7.890;2023-07-31T00:15:53;17.40;99.90
21648;DHT22;10985;54.182;7.890;2023-07-31T00:18:19;17.40;99.90
21648;DHT22;10985;54.182;7.890;2023-07-31T00:20:45;17.40;99.90
21648;DHT22;10985;54.182;7.890;2023-07-31T00:23:10;17.50;99.90
21648;DHT22;10985;54.182;7.890;2023-07-31T00:25:36;17.50;99.90
21648;DHT22;10985;54.182;7.890;2023-07-31T00:28:01;17.50;99.90
21648;DHT22;10985;54.182;7.890;2023-07-31T00:30:27;17.50;99.90
21648;DHT22;10985;54.182;7.890;2023-07-31T00:32:52;17.40;99.90
21648;DHT22;10985;54.182;7.890;2023-07-31T00:35:18;17.40;99.90
21648;DHT22;10985;54.182;7.890;2023-07-31T00:37:43;17.50;99.90
21648;DHT22;10985;54.182;7.890;2023-07-31T00:40:09;17.50;99.90
21648;DHT22;10985;54.182;7.890;2023-07-31T00:42:34;17.50;99.90
21648;DHT22;10985;54.182;7.890;2023-07-31T00:45:00;17.50;99.90
21648;DHT22;10985;54.182;7.890;2023-07-31T00:47:26;17.40;99.90
21648;DHT22;10985;54.182;7.890;2023-07-31T00:49:52;17.40;99.90
21648;DHT22;10985;54.182;7.890;2023-07-31T00:52:18;17.40;99.90
21648;DHT22;10985;54.182;7.890;2023-07-31T00:54:44;17.40;99.90
21648;DHT22;10985;54.182;7.890;2023-07-31T00:57:10;17.40;99.90
21648;DHT22;10985;54.182;7.890;2023-07-31T00:59:35;17.40;99.90
21648;DHT22;10985;54.182;7.890;2023-07-31T01:02:02;17.40;99.90
21648;DHT22;10985;54.182;7.890;2023-07-31T01:04:28;17.40;99.90
21648;DHT22;10985;54.182;7.890;2023-07-31T01:07:19;17.30;99.90
21648;DHT22;10985;54.182;7.890;2023-07-31T01:10:07;17.40;99.90
21648;DHT22;10985;54.182;7.890;2023-07-31T01:12:34;17.40;99.90
21648;DHT22;10985;54.182;7.890;2023-07-31T01:15:08;17.40;99.90
21648;DHT22;10985;54.182;7.890;2023-07-31T01:17:37;17.40;99.90
21648;DHT22;10985;54.182;7.890;2023-07-31T01:20:12;17.40;99.90
21648;DHT22;10985;54.182;7.890;2023-07-31T01:28:05;17.40;99.90
21648;DHT22;10985;54.182;7.890;2023-07-31T01:30:34;17.40;99.90
21648;DHT22;10985;54.182;7.890;2023-07-31T01:33:03;17.40;99.90
21648;DHT22;10985;54.182;7.890;2023-07-31T01:35:37;17.30;99.90
21648;DHT22;10985;54.182;7.890;2023-07-31T01:38:03;17.30;99.90
21648;DHT22;10985;54.182;7.890;2023-07-31T01:40:29;17.30;99.90
21648;DHT22;10985;54.182;7.890;2023-07-31T01:42:55;17.30;99.90
21648;DHT22;10985;54.182;7.890;2023-07-31T01:45:21;17.30;99.90
21648;DHT22;10985;54.182;7.890;2023-07-31T01:47:46;17.30;99.90
21648;DHT22;10985;54.182;7.890;2023-07-31T01:50:12;17.30;99.90
21648;DHT22;10985;54.182;7.890;2023-07-31T01:52:37;17.30;99.90
21648;DHT22;10985;54.182;7.890;2023-07-31T01:55:03;17.20;99.90
21648;DHT22;10985;54.182;7.890;2023-07-31T01:57:29;17.20;99.90
21648;DHT22;10985;54.182;7.890;2023-07-31T01:59:54;17.20;99.90
21648;DHT22;10985;54.182;7.890;2023-07-31T02:02:21;17.20;99.90
21648;DHT22;10985;54.182;7.890;2023-07-31T02:04:48;17.20;99.90
21648;DHT22;10985;54.182;7.890;2023-07-31T02:07:14;17.30;99.90
21648;DHT22;10985;54.182;7.890;2023-07-31T02:09:40;17.40;99.90
21648;DHT22;10985;54.182;7.890;2023-07-31T02:12:05;17.40;99.90
21648;DHT22;10985;54.182;7.890;2023-07-31T02:14:31;17.40;99.90
21648;DHT22;10985;54.182;7.890;2023-07-31T02:16:56;17.40;99.90
21648;DHT22;10985;54.182;7.890;2023-07-31T02:19:22;17.40;99.90
21648;DHT22;10985;54.182;7.890;2023-07-31T02:21:47;17.30;99.90
21648;DHT22;10985;54.182;7.890;2023-07-31T02:24:13;17.30;99.90
21648;DHT22;10985;54.182;7.890;2023-07-31T02:26:38;17.30;99.90
21648;DHT22;10985;54.182;7.890;2023-07-31T02:29:04;17.30;99.90
21648;DHT22;10985;54.182;7.890;2023-07-31T02:31:29;17.30;99.90
21648;DHT22;10985;54.182;7.890;2023-07-31T02:33:55;17.30;99.90
21648;DHT22;10985;54.182;7.890;2023-07-31T02:36:21;17.30;99.90
21648;DHT22;10985;54.182;7.890;2023-07-31T02:38:46;17.30;99.90
21648;DHT22;10985;54.182;7.890;2023-07-31T02:41:12;17.30;99.90
21648;DHT22;10985;54.182;7.890;2023-07-31T02:43:37;17.30;99.90
21648;DHT22;10985;54.182;7.890;2023-07-31T02:46:02;17.30;99.90
21648;DHT22;10985;54.182;7.890;2023-07-31T02:48:28;17.30;99.90
21648;DHT22;10985;54.182;7.890;2023-07-31T02:50:53;17.30;99.90
21648;DHT22;10985;54.182;7.890;2023-07-31T02:53:19;17.30;99.90
21648;DHT22;10985;54.182;7.890;2023-07-31T02:55:44;17.30;99.90
21648;DHT22;10985;54.182;7.890;2023-07-31T02:58:10;17.30;99.90
21648;DHT22;10985;54.182;7.890;2023-07-31T03:00:35;17.30;99.90
21648;DHT22;10985;54.182;7.890;2023-07-31T03:03:01;17.30;99.90
21648;DHT22;10985;54.182;7.890;2023-07-31T03:05:26;17.30;99.90
21648;DHT22;10985;54.182;7.890;2023-07-31T03:07:52;17.30;99.90
21648;DHT22;10985;54.182;7.890;2023-07-31T03:10:17;17.30;99.90
21648;DHT22;10985;54.182;7.890;2023-07-31T03:12:46;17.30;99.90
21648;DHT22;10985;54.182;7.890;2023-07-31T03:15:12;17.30;99.90
21648;DHT22;10985;54.182;7.890;2023-07-31T03:17:38;17.20;99.90
21648;DHT22;10985;54.182;7.890;2023-07-31T03:20:04;17.20;99.90
21648;DHT22;10985;54.182;7.890;2023-07-31T03:22:29;17.20;99.90
21648;DHT22;10985;54.182;7.890;2023-07-31T03:24:55;17.20;99.90
21648;DHT22;10985;54.182;7.890;2023-07-31T03:27:20;17.30;99.90
21648;DHT22;10985;54.182;7.890;2023-07-31T03:29:46;17.30;99.90
21648;DHT22;10985;54.182;7.890;2023-07-31T03:32:11;17.40;99.90
21648;DHT22;10985;54.182;7.890;2023-07-31T03:34:36;17.30;99.90
21648;DHT22;10985;54.182;7.890;2023-07-31T03:37:03;17.30;99.90
21648;DHT22;10985;54.182;7.890;2023-07-31T03:39:30;17.30;99.90
21648;DHT22;10985;54.182;7.890;2023-07-31T03:41:55;17.30;99.90
21648;DHT22;10985;54.182;7.890;2023-07-31T03:44:21;17.30;99.90
21648;DHT22;10985;54.182;7.890;2023-07-31T03:46:46;17.30;99.90
21648;DHT22;10985;54.182;7.890;2023-07-31T03:49:12;17.30;99.90
21648;DHT22;10985;54.182;7.890;2023-07-31T03:51:37;17.30;99.90
21648;DHT22;10985;54.182;7.890;2023-07-31T03:54:03;17.30;99.90
21648;DHT22;10985;54.182;7.890;2023-07-31T03:56:28;17.40;99.90
21648;DHT22;10985;54.182;7.890;2023-07-31T03:58:54;17.40;99.90
21648;DHT22;10985;54.182;7.890;2023-07-31T04:01:20;17.40;99.90
21648;DHT22;10985;54.182;7.890;2023-07-31T04:03:45;17.40;99.90
21648;DHT22;10985;54.182;7.890;2023-07-31T04:06:11;17.40;99.90
21648;DHT22;10985;54.182;7.890;2023-07-31T04:08:36;17.40;99.90
21648;DHT22;10985;54.182;7.890;2023-07-31T04:11:01;17.50;99.90
21648;DHT22;10985;54.182;7.890;2023-07-31T04:13:29;17.50;99.90
21648;DHT22;10985;54.182;7.890;2023-07-31T04:15:55;17.50;99.90
21648;DHT22;10985;54.182;7.890;2023-07-31T04:18:20;17.50;99.90
21648;DHT22;10985;54.182;7.890;2023-07-31T04:20:46;17.60;99.90
21648;DHT22;10985;54.182;7.890;2023-07-31T04:23:11;17.50;99.90
21648;DHT22;10985;54.182;7.890;2023-07-31T04:25:37;17.60;99.90
21648;DHT22;10985;54.182;7.890;2023-07-31T04:28:03;17.60;99.90
21648;DHT22;10985;54.182;7.890;2023-07-31T04:30:28;17.60;99.90
21648;DHT22;10985;54.182;7.890;2023-07-31T04:32:54;17.60;99.90
21648;DHT22;10985;54.182;7.890;2023-07-31T04:35:19;17.60;99.90
21648;DHT22;10985;54.182;7.890;2023-07-31T04:37:45;17.60;99.90
21648;DHT22;10985;54.182;7.890;2023-07-31T04:40:14;17.70;99.90
21648;DHT22;10985;54.182;7.890;2023-07-31T04:42:39;17.70;99.90
21648;DHT22;10985;54.182;7.890;2023-07-31T04:45:05;17.60;99.90
21648;DHT22;10985;54.182;7.890;2023-07-31T04:47:31;17.60;99.90
21648;DHT22;10985;54.182;7.890;2023-07-31T04:49:56;17.50;99.90
21648;DHT22;10985;54.182;7.890;2023-07-31T04:52:22;17.50;99.90
21648;DHT22;10985;54.182;7.890;2023-07-31T04:54:47;17.40;99.90
21648;DHT22;10985;54.182;7.890;2023-07-31T04:57:13;17.30;99.90
21648;DHT22;10985;54.182;7.890;2023-07-31T04:59:39;17.30;99.90
21648;DHT22;10985;54.182;7.890;2023-07-31T05:02:04;17.20;99.90
21648;DHT22;10985;54.182;7.890;2023-07-31T05:04:30;17.20;99.90
21648;DHT22;10985;54.182;7.890;2023-07-31T05:06:56;17.20;99.90
21648;DHT22;10985;54.182;7.890;2023-07-31T05:09:21;17.10;99.90
21648;DHT22;10985;54.182;7.890;2023-07-31T05:11:46;17.10;99.90
21648;DHT22;10985;54.182;7.890;2023-07-31T05:14:12;17.10;99.90
21648;DHT22;10985;54.182;7.890;2023-07-31T05:16:38;17.10;99.90
21648;DHT22;10985;54.182;7.890;2023-07-31T05:19:03;17.00;99.90
21648;DHT22;10985;54.182;7.890;2023-07-31T05:21:29;17.00;99.90
21648;DHT22;10985;54.182;7.890;2023-07-31T05:23:54;17.00;99.90
21648;DHT22;10985;54.182;7.890;2023-07-31T05:26:20;17.00;99.90
21648;DHT22;10985;54.182;7.890;2023-07-31T05:28:45;17.00;99.90
21648;DHT22;10985;54.182;7.890;2023-07-31T05:31:11;16.90;99.90
21648;DHT22;10985;54.182;7.890;2023-07-31T05:33:36;16.90;99.90
21648;DHT22;10985;54.182;7.890;2023-07-31T05:36:02;16.90;99.90
21648;DHT22;10985;54.182;7.890;2023-07-31T05:38:27;16.80;99.90
21648;DHT22;10985;54.182;7.890;2023-07-31T05:40:53;16.80;99.90
21648;DHT22;10985;54.182;7.890;2023-07-31T05:43:18;16.80;99.90
21648;DHT22;10985;54.182;7.890;2023-07-31T05:45:44;16.80;99.90
21648;DHT22;10985;54.182;7.890;2023-07-31T05:48:10;16.80;99.90
21648;DHT22;10985;54.182;7.890;2023-07-31T05:50:35;16.80;99.90
21648;DHT22;10985;54.182;7.890;2023-07-31T05:53:00;16.60;99.90
21648;DHT22;10985;54.182;7.890;2023-07-31T05:55:26;16.60;99.90
21648;DHT22;10985;54.182;7.890;2023-07-31T05:57:55;16.40;99.90
21648;DHT22;10985;54.182;7.890;2023-07-31T06:00:20;16.30;99.90
21648;DHT22;10985;54.182;7.890;2023-07-31T06:02:47;16.10;99.90
21648;DHT22;10985;54.182;7.890;2023-07-31T06:05:13;16.10;99.90
21648;DHT22;10985;54.182;7.890;2023-07-31T06:07:38;16.20;99.90
21648;DHT22;10985;54.182;7.890;2023-07-31T06:10:05;16.20;99.90
21648;DHT22;10985;54.182;7.890;2023-07-31T06:12:34;16.20;99.90
21648;DHT22;10985;54.182;7.890;2023-07-31T06:15:00;16.20;99.90
21648;DHT22;10985;54.182;7.890;2023-07-31T06:17:26;16.20;99.90
21648;DHT22;10985;54.182;7.890;2023-07-31T06:19:52;16.20;99.90
21648;DHT22;10985;54.182;7.890;2023-07-31T06:22:17;16.20;99.90
21648;DHT22;10985;54.182;7.890;2023-07-31T06:24:43;16.20;99.90
21648;DHT22;10985;54.182;7.890;2023-07-31T06:27:10;16.10;99.90
21648;DHT22;10985;54.182;7.890;2023-07-31T06:29:35;16.10;99.90
21648;DHT22;10985;54.182;7.890;2023-07-31T06:32:01;16.10;99.90
21648;DHT22;10985;54.182;7.890;2023-07-31T06:34:26;16.10;99.90
21648;DHT22;10985;54.182;7.890;2023-07-31T06:36:52;16.20;99.90
21648;DHT22;10985;54.182;7.890;2023-07-31T06:39:17;16.20;99.90
21648;DHT22;10985;54.182;7.890;2023-07-31T06:41:43;16.10;99.90
21648;DHT22;10985;54.182;7.890;2023-07-31T06:44:09;16.10;99.90
21648;DHT22;10985;54.182;7.890;2023-07-31T06:46:35;16.10;99.90
21648;DHT22;10985;54.182;7.890;2023-07-31T06:49:00;16.10;99.90
21648;DHT22;10985;54.182;7.890;2023-07-31T06:51:26;16.10;99.90
21648;DHT22;10985;54.182;7.890;2023-07-31T06:53:51;16.10;99.90
21648;DHT22;10985;54.182;7.890;2023-07-31T06:56:17;16.10;99.90
21648;DHT22;10985;54.182;7.890;2023-07-31T06:58:43;16.10;99.90
21648;DHT22;10985;54.182;7.890;2023-07-31T07:01:08;16.10;99.90
21648;DHT22;10985;54.182;7.890;2023-07-31T07:03:34;16.10;99.90
21648;DHT22;10985;54.182;7.890;2023-07-31T07:06:00;16.20;99.90
21648;DHT22;10985;54.182;7.890;2023-07-31T07:08:25;16.20;99.90
21648;DHT22;10985;54.182;7.890;2023-07-31T07:10:51;16.20;99.90
21648;DHT22;10985;54.182;7.890;2023-07-31T07:13:16;16.30;99.90
21648;DHT22;10985;54.182;7.890;2023-07-31T07:15:47;16.30;99.90
21648;DHT22;10985;54.182;7.890;2023-07-31T07:18:13;16.40;99.90
21648;DHT22;10985;54.182;7.890;2023-07-31T07:20:39;16.30;99.90
21648;DHT22;10985;54.182;7.890;2023-07-31T07:23:05;16.30;99.90
21648;DHT22;10985;54.182;7.890;2023-07-31T07:25:30;16.30;99.90
21648;DHT22;10985;54.182;7.890;2023-07-31T07:27:56;16.30;99.90
21648;DHT22;10985;54.182;7.890;2023-07-31T07:30:21;16.30;99.90
21648;DHT22;10985;54.182;7.890;2023-07-31T07:32:47;16.30;99.90
21648;DHT22;10985;54.182;7.890;2023-07-31T07:35:13;16.30;99.90
21648;DHT22;10985;54.182;7.890;2023-07-31T07:37:39;16.30;99.90
21648;DHT22;10985;54.182;7.890;2023-07-31T07:40:04;16.30;99.90
21648;DHT22;10985;54.182;7.890;2023-07-31T07:42:30;16.30;99.90
21648;DHT22;10985;54.182;7.890;2023-07-31T07:44:56;16.30;99.90
21648;DHT22;10985;54.182;7.890;2023-07-31T07:47:21;16.40;99.90
21648;DHT22;10985;54.182;7.890;2023-07-31T07:49:47;16.30;99.90
21648;DHT22;10985;54.182;7.890;2023-07-31T07:52:12;16.40;99.90
21648;DHT22;10985;54.182;7.890;2023-07-31T07:54:38;16.40;99.90
21648;DHT22;10985;54.182;7.890;2023-07-31T07:57:04;16.40;99.90
21648;DHT22;10985;54.182;7.890;2023-07-31T07:59:29;16.50;99.90
21648;DHT22;10985;54.182;7.890;2023-07-31T08:01:55;16.50;99.90
21648;DHT22;10985;54.182;7.890;2023-07-31T08:04:20;16.50;99.90
21648;DHT22;10985;54.182;7.890;2023-07-31T08:06:46;16.60;99.90
21648;DHT22;10985;54.182;7.890;2023-07-31T08:09:11;16.60;99.90
21648;DHT22;10985;54.182;7.890;2023-07-31T08:11:37;16.60;99.90
21648;DHT22;10985;54.182;7.890;2023-07-31T08:14:02;16.60;99.90
21648;DHT22;10985;54.182;7.890;2023-07-31T08:16:28;16.60;99.90
21648;DHT22;10985;54.182;7.890;2023-07-31T08:18:53;16.60;99.90
21648;DHT22;10985;54.182;7.890;2023-07-31T08:21:19;16.70;99.90
21648;DHT22;10985;54.182;7.890;2023-07-31T08:23:44;16.70;99.90
21648;DHT22;10985;54.182;7.890;2023-07-31T08:26:17;16.80;99.90
21648;DHT22;10985;54.182;7.890;2023-07-31T08:28:43;16.80;99.90
21648;DHT22;10985;54.182;7.890;2023-07-31T08:31:08;16.80;99.90
21648;DHT22;10985;54.182;7.890;2023-07-31T08:33:34;16.90;99.90
21648;DHT22;10985;54.182;7.890;2023-07-31T08:35:59;16.90;99.90
21648;DHT22;10985;54.182;7.890;2023-07-31T08:38:26;16.90;99.90
21648;DHT22;10985;54.182;7.890;2023-07-31T08:40:52;17.00;99.90
21648;DHT22;10985;54.182;7.890;2023-07-31T08:43:18;17.00;99.90
21648;DHT22;10985;54.182;7.890;2023-07-31T08:45:44;17.00;99.90
21648;DHT22;10985;54.182;7.890;2023-07-31T08:48:11;16.90;99.90
21648;DHT22;10985;54.182;7.890;2023-07-31T08:50:37;17.00;99.90
21648;DHT22;10985;54.182;7.890;2023-07-31T08:53:03;17.00;99.90
21648;DHT22;10985;54.182;7.890;2023-07-31T08:55:29;17.00;99.90
21648;DHT22;10985;54.182;7.890;2023-07-31T08:57:56;17.00;99.90
21648;DHT22;10985;54.182;7.890;2023-07-31T09:00:23;17.00;99.90
21648;DHT22;10985;54.182;7.890;2023-07-31T09:03:03;17.00;99.90
21648;DHT22;10985;54.182;7.890;2023-07-31T09:05:33;17.00;99.90
21648;DHT22;10985;54.182;7.890;2023-07-31T09:08:00;17.10;99.90
21648;DHT22;10985;54.182;7.890;2023-07-31T09:10:27;17.10;99.90
21648;DHT22;10985;54.182;7.890;2023-07-31T09:12:52;17.10;99.90
21648;DHT22;10985;54.182;7.890;2023-07-31T09:15:18;17.10;99.90
21648;DHT22;10985;54.182;7.890;2023-07-31T09:17:44;17.10;99.90
21648;DHT22;10985;54.182;7.890;2023-07-31T09:20:14;17.10;99.90
21648;DHT22;10985;54.182;7.890;2023-07-31T09:22:40;17.00;99.90
21648;DHT22;10985;54.182;7.890;2023-07-31T09:25:18;17.00;99.90
21648;DHT22;10985;54.182;7.890;2023-07-31T09:28:01;17.00;99.90
21648;DHT22;10985;54.182;7.890;2023-07-31T09:30:27;16.90;99.90
21648;DHT22;10985;54.182;7.890;2023-07-31T09:33:01;16.80;99.90
21648;DHT22;10985;54.182;7.890;2023-07-31T09:35:31;16.90;99.90
21648;DHT22;10985;54.182;7.890;2023-07-31T09:38:04;16.90;99.90
21648;DHT22;10985;54.182;7.890;2023-07-31T09:40:34;17.00;99.90
21648;DHT22;10985;54.182;7.890;2023-07-31T09:43:02;16.90;99.90
21648;DHT22;10985;54.182;7.890;2023-07-31T09:45:28;17.00;99.90
21648;DHT22;10985;54.182;7.890;2023-07-31T09:47:55;16.90;99.90
21648;DHT22;10985;54.182;7.890;2023-07-31T09:50:22;16.90;99.90
21648;DHT22;10985;54.182;7.890;2023-07-31T09:52:49;16.90;99.90
21648;DHT22;10985;54.182;7.890;2023-07-31T09:55:14;16.90;99.90
21648;DHT22;10985;54.182;7.890;2023-07-31T09:57:41;16.90;99.90
21648;DHT22;10985;54.182;7.890;2023-07-31T10:00:09;16.80;99.90
21648;DHT22;10985;54.182;7.890;2023-07-31T10:02:36;16.90;99.90
21648;DHT22;10985;54.182;7.890;2023-07-31T10:05:03;16.90;99.90
21648;DHT22;10985;54.182;7.890;2023-07-31T10:07:30;17.00;99.90
21648;DHT22;10985;54.182;7.890;2023-07-31T10:09:59;16.90;99.90
21648;DHT22;10985;54.182;7.890;2023-07-31T10:12:26;16.90;99.90
21648;DHT22;10985;54.182;7.890;2023-07-31T10:14:56;16.90;99.90
21648;DHT22;10985;54.182;7.890;2023-07-31T10:17:22;16.90;99.90
21648;DHT22;10985;54.182;7.890;2023-07-31T10:19:49;16.80;99.90
21648;DHT22;10985;54.182;7.890;2023-07-31T10:22:15;16.80;99.90
21648;DHT22;10985;54.182;7.890;2023-07-31T10:24:45;16.90;99.90
21648;DHT22;10985;54.182;7.890;2023-07-31T10:27:11;16.90;99.90
21648;DHT22;10985;54.182;7.890;2023-07-31T10:29:41;16.80;99.90
21648;DHT22;10985;54.182;7.890;2023-07-31T10:32:09;16.80;99.90
21648;DHT22;10985;54.182;7.890;2023-07-31T10:34:37;16.90;99.90
21648;DHT22;10985;54.182;7.890;2023-07-31T10:39:55;16.90;99.90
21648;DHT22;10985;54.182;7.890;2023-07-31T10:42:33;16.80;99.90
21648;DHT22;10985;54.182;7.890;2023-07-31T10:45:02;16.80;99.90
21648;DHT22;10985;54.182;7.890;2023-07-31T10:47:27;16.80;99.90
21648;DHT22;10985;54.182;7.890;2023-07-31T10:49:55;16.90;99.90
21648;DHT22;10985;54.182;7.890;2023-07-31T10:52:36;16.90;99.90
21648;DHT22;10985;54.182;7.890;2023-07-31T10:58:20;17.00;99.90
21648;DHT22;10985;54.182;7.890;2023-07-31T11:00:49;17.00;99.90
21648;DHT22;10985;54.182;7.890;2023-07-31T11:03:16;17.00;99.90
21648;DHT22;10985;54.182;7.890;2023-07-31T11:05:46;17.00;99.90
21648;DHT22;10985;54.182;7.890;2023-07-31T11:08:23;17.00;99.90
21648;DHT22;10985;54.182;7.890;2023-07-31T11:10:51;17.10;99.90
21648;DHT22;10985;54.182;7.890;2023-07-31T11:13:30;17.10;99.90
21648;DHT22;10985;54.182;7.890;2023-07-31T11:15:55;17.20;99.90
21648;DHT22;10985;54.182;7.890;2023-07-31T11:18:21;17.20;99.90
21648;DHT22;10985;54.182;7.890;2023-07-31T11:20:46;17.30;99.90
21648;DHT22;10985;54.182;7.890;2023-07-31T11:23:12;17.40;99.90
21648;DHT22;10985;54.182;7.890;2023-07-31T11:25:39;17.50;99.90
21648;DHT22;10985;54.182;7.890;2023-07-31T11:28:14;17.70;99.90
21648;DHT22;10985;54.182;7.890;2023-07-31T11:30:41;17.90;99.90
21648;DHT22;10985;54.182;7.890;2023-07-31T11:33:08;18.00;99.90
21648;DHT22;10985;54.182;7.890;2023-07-31T11:35:35;18.10;99.90
21648;DHT22;10985;54.182;7.890;2023-07-31T11:38:01;18.10;99.90
21648;DHT22;10985;54.182;7.890;2023-07-31T11:40:28;18.20;99.90
21648;DHT22;10985;54.182;7.890;2023-07-31T11:42:58;18.20;99.90
21648;DHT22;10985;54.182;7.890;2023-07-31T11:45:26;18.20;99.90
21648;DHT22;10985;54.182;7.890;2023-07-31T11:47:54;18.30;99.90
21648;DHT22;10985;54.182;7.890;2023-07-31T11:50:21;18.30;99.90
21648;DHT22;10985;54.182;7.890;2023-07-31T11:52:48;18.40;99.90
21648;DHT22;10985;54.182;7.890;2023-07-31T11:55:16;18.40;99.90
21648;DHT22;10985;54.182;7.890;2023-07-31T11:57:43;18.40;99.90
21648;DHT22;10985;54.182;7.890;2023-07-31T12:00:11;18.50;99.90
21648;DHT22;10985;54.182;7.890;2023-07-31T12:02:39;18.40;99.90
21648;DHT22;10985;54.182;7.890;2023-07-31T12:05:14;18.50;99.90
21648;DHT22;10985;54.182;7.890;2023-07-31T12:07:50;18.60;99.90
21648;DHT22;10985;54.182;7.890;2023-07-31T12:10:27;18.70;99.90
21648;DHT22;10985;54.182;7.890;2023-07-31T12:13:00;18.70;99.90
21648;DHT22;10985;54.182;7.890;2023-07-31T12:15:42;18.80;99.90
21648;DHT22;10985;54.182;7.890;2023-07-31T12:18:16;18.90;99.90
21648;DHT22;10985;54.182;7.890;2023-07-31T12:20:48;19.10;99.90
21648;DHT22;10985;54.182;7.890;2023-07-31T12:23:19;19.30;99.90
21648;DHT22;10985;54.182;7.890;2023-07-31T12:26:00;19.70;99.90
21648;DHT22;10985;54.182;7.890;2023-07-31T12:28:25;20.00;99.90
21648;DHT22;10985;54.182;7.890;2023-07-31T12:30:51;20.30;99.90
21648;DHT22;10985;54.182;7.890;2023-07-31T12:33:19;20.60;99.90
21648;DHT22;10985;54.182;7.890;2023-07-31T12:35:46;20.90;99.90
21648;DHT22;10985;54.182;7.890;2023-07-31T12:38:12;21.20;99.90
21648;DHT22;10985;54.182;7.890;2023-07-31T12:40:39;21.40;99.90
21648;DHT22;10985;54.182;7.890;2023-07-31T12:43:05;21.70;99.90
21648;DHT22;10985;54.182;7.890;2023-07-31T12:45:31;21.90;99.90
21648;DHT22;10985;54.182;7.890;2023-07-31T12:47:58;22.20;99.90
21648;DHT22;10985;54.182;7.890;2023-07-31T12:50:24;22.40;99.90
21648;DHT22;10985;54.182;7.890;2023-07-31T12:52:51;22.60;99.90
21648;DHT22;10985;54.182;7.890;2023-07-31T12:55:17;22.80;99.90
21648;DHT22;10985;54.182;7.890;2023-07-31T12:57:44;23.00;99.90
21648;DHT22;10985;54.182;7.890;2023-07-31T13:00:10;23.30;99.90
21648;DHT22;10985;54.182;7.890;2023-07-31T13:02:36;23.50;99.90
21648;DHT22;10985;54.182;7.890;2023-07-31T13:05:02;23.80;99.90
21648;DHT22;10985;54.182;7.890;2023-07-31T13:07:27;24.10;99.90
21648;DHT22;10985;54.182;7.890;2023-07-31T13:09:53;24.40;99.90
21648;DHT22;10985;54.182;7.890;2023-07-31T13:12:18;24.80;99.90
21648;DHT22;10985;54.182;7.890;2023-07-31T13:14:44;25.00;99.90
21648;DHT22;10985;54.182;7.890;2023-07-31T13:17:09;25.30;99.90
21648;DHT22;10985;54.182;7.890;2023-07-31T13:19:35;25.50;99.90
21648;DHT22;10985;54.182;7.890;2023-07-31T13:22:00;25.50;99.90
21648;DHT22;10985;54.182;7.890;2023-07-31T13:24:26;25.60;99.90
21648;DHT22;10985;54.182;7.890;2023-07-31T13:26:51;25.60;99.90
21648;DHT22;10985;54.182;7.890;2023-07-31T13:29:17;25.50;99.90
21648;DHT22;10985;54.182;7.890;2023-07-31T13:31:42;25.50;99.90
21648;DHT22;10985;54.182;7.890;2023-07-31T13:34:08;25.40;99.90
21648;DHT22;10985;54.182;7.890;2023-07-31T13:36:33;25.20;99.90
21648;DHT22;10985;54.182;7.890;2023-07-31T13:39:00;25.10;99.90
21648;DHT22;10985;54.182;7.890;2023-07-31T13:41:26;25.00;99.90
21648;DHT22;10985;54.182;7.890;2023-07-31T13:43:51;24.80;99.90
21648;DHT22;10985;54.182;7.890;2023-07-31T13:46:17;24.80;99.90
21648;DHT22;10985;54.182;7.890;2023-07-31T13:48:42;24.70;99.90
21648;DHT22;10985;54.182;7.890;2023-07-31T13:51:08;24.40;99.90
21648;DHT22;10985;54.182;7.890;2023-07-31T13:53:33;24.30;99.90
21648;DHT22;10985;54.182;7.890;2023-07-31T13:55:59;24.10;99.90
21648;DHT22;10985;54.182;7.890;2023-07-31T13:58:24;24.10;99.90
21648;DHT22;10985;54.182;7.890;2023-07-31T14:00:50;24.10;99.90
21648;DHT22;10985;54.182;7.890;2023-07-31T14:03:15;24.00;99.90
21648;DHT22;10985;54.182;7.890;2023-07-31T14:05:41;23.90;99.90
21648;DHT22;10985;54.182;7.890;2023-07-31T14:08:07;23.80;99.90
21648;DHT22;10985;54.182;7.890;2023-07-31T14:10:32;23.70;99.90
21648;DHT22;10985;54.182;7.890;2023-07-31T14:12:58;23.60;99.90
21648;DHT22;10985;54.182;7.890;2023-07-31T14:15:23;23.40;99.90
21648;DHT22;10985;54.182;7.890;2023-07-31T14:17:49;23.20;99.90
21648;DHT22;10985;54.182;7.890;2023-07-31T14:20:14;23.10;99.90
21648;DHT22;10985;54.182;7.890;2023-07-31T14:22:40;22.90;99.90
21648;DHT22;10985;54.182;7.890;2023-07-31T14:25:05;22.80;99.90
21648;DHT22;10985;54.182;7.890;2023-07-31T14:27:31;22.50;99.90
21648;DHT22;10985;54.182;7.890;2023-07-31T14:29:57;22.30;99.90
21648;DHT22;10985;54.182;7.890;2023-07-31T14:32:22;22.00;99.90
21648;DHT22;10985;54.182;7.890;2023-07-31T14:34:51;21.90;99.90
21648;DHT22;10985;54.182;7.890;2023-07-31T14:37:17;21.80;99.90
21648;DHT22;10985;54.182;7.890;2023-07-31T14:39:42;21.60;99.90
21648;DHT22;10985;54.182;7.890;2023-07-31T14:42:09;21.40;99.90
21648;DHT22;10985;54.182;7.890;2023-07-31T14:44:34;21.30;99.90
21648;DHT22;10985;54.182;7.890;2023-07-31T14:47:00;21.20;99.90
21648;DHT22;10985;54.182;7.890;2023-07-31T14:49:25;21.00;99.90
21648;DHT22;10985;54.182;7.890;2023-07-31T14:51:52;20.90;99.90
21648;DHT22;10985;54.182;7.890;2023-07-31T14:54:18;20.70;99.90
21648;DHT22;10985;54.182;7.890;2023-07-31T14:56:43;20.60;99.90
21648;DHT22;10985;54.182;7.890;2023-07-31T14:59:09;20.40;99.90
21648;DHT22;10985;54.182;7.890;2023-07-31T15:01:35;20.30;99.90
21648;DHT22;10985;54.182;7.890;2023-07-31T15:04:01;20.20;99.90
21648;DHT22;10985;54.182;7.890;2023-07-31T15:06:26;20.10;99.90
21648;DHT22;10985;54.182;7.890;2023-07-31T15:08:52;20.00;99.90
21648;DHT22;10985;54.182;7.890;2023-07-31T15:11:17;19.90;99.90
21648;DHT22;10985;54.182;7.890;2023-07-31T15:13:44;19.70;99.90
21648;DHT22;10985;54.182;7.890;2023-07-31T15:16:09;19.60;99.90
21648;DHT22;10985;54.182;7.890;2023-07-31T15:18:34;19.50;99.90
21648;DHT22;10985;54.182;7.890;2023-07-31T15:21:00;19.40;99.90
21648;DHT22;10985;54.182;7.890;2023-07-31T15:23:25;19.30;99.90
21648;DHT22;10985;54.182;7.890;2023-07-31T15:25:51;19.30;99.90
21648;DHT22;10985;54.182;7.890;2023-07-31T15:28:18;19.30;99.90
21648;DHT22;10985;54.182;7.890;2023-07-31T15:30:44;19.20;99.90
21648;DHT22;10985;54.182;7.890;2023-07-31T15:33:09;19.20;99.90
21648;DHT22;10985;54.182;7.890;2023-07-31T15:35:35;19.10;99.90
21648;DHT22;10985;54.182;7.890;2023-07-31T15:38:00;19.10;99.90